createdAt,value
2018-05-07T00:01:55.897Z,99.80
2018-05-07T00:04:29.647Z,99.70
2018-05-07T00:07:04.291Z,99.90
2018-05-07T00:09:38.428Z,99.90
2018-05-07T00:12:13.931Z,99.90
2018-05-07T00:14:47.844Z,99.90
2018-05-07T00:17:21.843Z,99.90
2018-05-07T00:19:57.030Z,99.90
2018-05-07T00:22:30.876Z,99.90
2018-05-07T00:25:05.632Z,99.90
2018-05-07T00:27:39.326Z,99.90
2018-05-07T00:30:13.855Z,99.90
2018-05-07T00:32:48.221Z,99.90
2018-05-07T00:35:22.325Z,99.90
2018-05-07T00:37:57.384Z,99.90
2018-05-07T00:40:32.008Z,99.90
2018-05-07T00:43:07.051Z,99.90
2018-05-07T00:45:40.637Z,99.90
2018-05-07T00:48:14.714Z,99.90
2018-05-07T00:50:49.079Z,99.90
2018-05-07T00:53:23.528Z,99.90
2018-05-07T00:55:57.639Z,99.90
2018-05-07T00:58:32.139Z,99.90
2018-05-07T01:01:07.215Z,99.90
2018-05-07T01:03:41.610Z,99.90
2018-05-07T01:06:16.206Z,99.90
2018-05-07T01:08:49.838Z,99.90
2018-05-07T01:11:24.127Z,99.90
2018-05-07T01:13:58.338Z,99.90
2018-05-07T01:16:32.648Z,99.90
2018-05-07T01:19:06.987Z,99.90
2018-05-07T01:21:40.798Z,99.90
2018-05-07T01:24:15.710Z,99.90
2018-05-07T01:26:50.243Z,99.90
2018-05-07T01:29:24.987Z,99.90
2018-05-07T01:31:59.173Z,99.90
2018-05-07T01:34:33.181Z,99.90
2018-05-07T01:37:06.993Z,99.80
2018-05-07T01:39:41.458Z,99.20
2018-05-07T01:42:15.777Z,99.30
2018-05-07T01:44:51.694Z,99.70
2018-05-07T01:47:26.806Z,99.90
2018-05-07T01:50:00.431Z,99.90
2018-05-07T01:52:35.032Z,99.90
2018-05-07T01:55:09.457Z,99.90
2018-05-07T01:57:43.671Z,99.90
2018-05-07T02:00:17.852Z,99.90
2018-05-07T02:02:52.712Z,99.90
2018-05-07T02:05:26.717Z,99.90
2018-05-07T02:08:01.038Z,99.90
2018-05-07T02:10:34.862Z,99.90
2018-05-07T02:13:10.992Z,99.90
2018-05-07T02:15:46.949Z,99.90
2018-05-07T02:18:20.647Z,99.90
2018-05-07T02:20:55.183Z,99.90
2018-05-07T02:23:29.091Z,99.90
2018-05-07T02:26:02.935Z,99.90
2018-05-07T02:28:37.762Z,99.90
2018-05-07T02:31:11.832Z,99.90
2018-05-07T02:33:46.006Z,99.90
2018-05-07T02:36:19.741Z,99.90
2018-05-07T02:38:53.623Z,99.90
2018-05-07T02:41:27.852Z,99.90
2018-05-07T02:44:01.477Z,99.90
2018-05-07T02:46:36.190Z,99.90
2018-05-07T02:49:10.821Z,99.90
2018-05-07T02:51:45.234Z,99.90
2018-05-07T02:54:19.346Z,99.90
2018-05-07T02:56:54.374Z,99.90
2018-05-07T02:59:28.927Z,99.90
2018-05-07T03:02:03.730Z,99.90
2018-05-07T03:04:37.967Z,99.90
2018-05-07T03:07:12.123Z,99.90
2018-05-07T03:09:45.987Z,99.90
2018-05-07T03:12:19.813Z,99.90
2018-05-07T03:14:55.407Z,99.90
2018-05-07T03:17:29.338Z,99.90
2018-05-07T03:20:03.015Z,99.90
2018-05-07T03:22:37.655Z,99.90
2018-05-07T03:25:11.864Z,99.90
2018-05-07T03:27:46.793Z,99.90
2018-05-07T03:30:21.911Z,99.90
2018-05-07T03:32:56.872Z,99.90
2018-05-07T03:35:31.890Z,99.90
2018-05-07T03:38:06.021Z,99.90
2018-05-07T03:40:39.911Z,99.90
2018-05-07T03:43:13.709Z,99.90
2018-05-07T03:45:48.159Z,99.90
2018-05-07T03:48:22.857Z,99.90
2018-05-07T03:50:57.208Z,99.90
2018-05-07T03:53:32.135Z,99.90
2018-05-07T03:56:06.447Z,99.90
2018-05-07T03:58:40.755Z,99.90
2018-05-07T04:01:14.435Z,99.90
2018-05-07T04:03:49.019Z,99.90
2018-05-07T04:06:22.697Z,99.90
2018-05-07T04:08:57.072Z,99.90
2018-05-07T04:11:31.715Z,99.90
2018-05-07T04:14:05.494Z,99.90
2018-05-07T04:16:51.198Z,99.90
2018-05-07T04:19:36.754Z,99.90
2018-05-07T04:22:22.548Z,99.90
2018-05-07T04:24:57.150Z,99.90
2018-05-07T04:27:31.304Z,99.90
2018-05-07T04:30:06.009Z,99.90
2018-05-07T04:32:40.667Z,99.90
2018-05-07T04:35:15.799Z,99.90
2018-05-07T04:37:49.799Z,99.90
2018-05-07T04:40:24.212Z,99.90
2018-05-07T04:42:59.145Z,99.90
2018-05-07T04:45:33.763Z,99.90
2018-05-07T04:48:08.419Z,99.90
2018-05-07T04:50:42.916Z,99.90
2018-05-07T04:53:16.714Z,99.90
2018-05-07T04:55:50.639Z,99.90
2018-05-07T04:58:26.202Z,99.90
2018-05-07T05:01:00.581Z,99.90
2018-05-07T05:03:35.118Z,99.90
2018-05-07T05:06:09.435Z,99.90
2018-05-07T05:08:45.451Z,99.90
2018-05-07T05:11:19.091Z,99.90
2018-05-07T05:13:52.873Z,99.90
2018-05-07T05:16:27.522Z,99.90
2018-05-07T05:19:02.053Z,99.90
2018-05-07T05:21:36.786Z,99.90
2018-05-07T05:24:10.518Z,99.90
2018-05-07T05:26:44.025Z,99.90
2018-05-07T05:29:17.656Z,99.90
2018-05-07T05:31:51.165Z,99.90
2018-05-07T05:34:25.698Z,99.90
2018-05-07T05:36:59.358Z,99.90
2018-05-07T05:39:32.816Z,99.90
2018-05-07T05:42:06.434Z,99.70
2018-05-07T05:44:40.679Z,99.50
2018-05-07T05:47:14.716Z,99.30
2018-05-07T05:49:48.411Z,99.30
2018-05-07T05:52:22.753Z,99.00
2018-05-07T05:54:57.631Z,98.80
2018-05-07T05:57:32.167Z,99.00
2018-05-07T06:00:06.511Z,98.70
2018-05-07T06:02:40.902Z,98.40
2018-05-07T06:05:14.781Z,98.40
2018-05-07T06:07:48.697Z,98.40
2018-05-07T06:10:22.439Z,98.40
2018-05-07T06:12:56.153Z,98.00
2018-05-07T06:15:30.835Z,97.90
2018-05-07T06:18:05.299Z,97.30
2018-05-07T06:20:40.500Z,97.60
2018-05-07T06:23:15.870Z,97.50
2018-05-07T06:25:50.401Z,97.00
2018-05-07T06:28:24.302Z,97.00
2018-05-07T06:30:58.834Z,96.50
2018-05-07T06:33:33.262Z,96.80
2018-05-07T06:36:07.860Z,96.50
2018-05-07T06:38:42.790Z,95.70
2018-05-07T06:41:16.719Z,95.70
2018-05-07T06:43:50.495Z,96.00
2018-05-07T06:46:25.000Z,95.60
2018-05-07T06:48:58.867Z,95.60
2018-05-07T06:51:33.607Z,95.80
2018-05-07T06:54:08.260Z,95.90
2018-05-07T06:56:42.093Z,95.70
2018-05-07T06:59:16.074Z,95.30
2018-05-07T07:01:50.759Z,95.00
2018-05-07T07:04:24.435Z,94.90
2018-05-07T07:06:59.027Z,94.60
2018-05-07T07:09:32.626Z,94.40
2018-05-07T07:12:07.075Z,94.20
2018-05-07T07:14:41.693Z,93.40
2018-05-07T07:17:16.067Z,93.10
2018-05-07T07:19:50.494Z,93.20
2018-05-07T07:22:25.008Z,93.10
2018-05-07T07:24:58.770Z,93.10
2018-05-07T07:27:32.456Z,93.30
2018-05-07T07:30:07.031Z,92.70
2018-05-07T07:32:41.655Z,92.00
2018-05-07T07:35:15.705Z,92.00
2018-05-07T07:37:50.084Z,92.10
2018-05-07T07:40:23.613Z,92.10
2018-05-07T07:42:57.390Z,92.40
2018-05-07T07:45:31.867Z,91.60
2018-05-07T07:48:05.436Z,91.60
2018-05-07T07:50:39.956Z,90.90
2018-05-07T07:53:14.453Z,90.70
2018-05-07T07:55:48.110Z,90.80
2018-05-07T07:58:22.608Z,90.80
2018-05-07T08:00:57.042Z,90.00
2018-05-07T08:03:31.000Z,90.00
2018-05-07T08:06:04.646Z,88.70
2018-05-07T08:08:38.392Z,88.40
2018-05-07T08:11:12.750Z,88.70
2018-05-07T08:13:46.936Z,88.70
2018-05-07T08:16:20.776Z,84.80
2018-05-07T08:18:55.200Z,83.30
2018-05-07T08:21:30.299Z,83.20
2018-05-07T08:24:03.957Z,83.10
2018-05-07T08:26:37.549Z,81.80
2018-05-07T08:29:11.616Z,82.10
2018-05-07T08:31:45.469Z,82.00
2018-05-07T08:34:19.343Z,80.70
2018-05-07T08:36:54.099Z,79.10
2018-05-07T08:39:27.899Z,79.20
2018-05-07T08:42:01.583Z,79.10
2018-05-07T08:44:36.015Z,75.80
2018-05-07T08:47:09.862Z,75.90
2018-05-07T08:49:44.629Z,76.30
2018-05-07T08:52:19.479Z,76.20
2018-05-07T08:54:54.079Z,74.80
2018-05-07T08:57:28.516Z,76.40
2018-05-07T09:00:02.935Z,73.90
2018-05-07T09:02:37.126Z,74.00
2018-05-07T09:05:10.838Z,75.20
2018-05-07T09:07:45.689Z,70.30
2018-05-07T09:10:19.599Z,70.30
2018-05-07T09:12:54.321Z,68.10
2018-05-07T09:15:28.298Z,68.10
2018-05-07T09:18:02.119Z,67.90
2018-05-07T09:20:35.933Z,68.80
2018-05-07T09:23:10.883Z,66.60
2018-05-07T09:25:45.493Z,67.50
2018-05-07T09:28:19.398Z,67.50
2018-05-07T09:30:54.075Z,62.20
2018-05-07T09:33:28.446Z,59.70
2018-05-07T09:36:03.325Z,59.80
2018-05-07T09:38:37.849Z,60.90
2018-05-07T09:41:11.483Z,60.90
2018-05-07T09:43:46.019Z,58.50
2018-05-07T09:46:19.727Z,58.20
2018-05-07T09:48:55.225Z,63.80
2018-05-07T09:51:29.775Z,56.70
2018-05-07T09:54:04.286Z,56.40
2018-05-07T09:56:50.144Z,56.50
2018-05-07T09:59:23.985Z,56.80
2018-05-07T10:01:58.581Z,54.30
2018-05-07T10:04:32.326Z,53.80
2018-05-07T10:07:06.975Z,54.00
2018-05-07T10:09:40.657Z,53.90
2018-05-07T10:12:15.265Z,52.60
2018-05-07T10:14:49.420Z,52.50
2018-05-07T10:17:23.978Z,50.90
2018-05-07T10:19:57.693Z,51.00
2018-05-07T10:22:31.420Z,51.50
2018-05-07T10:25:05.609Z,49.10
2018-05-07T10:27:39.570Z,50.30
2018-05-07T10:30:13.226Z,51.60
2018-05-07T10:32:46.979Z,48.50
2018-05-07T10:35:20.737Z,49.60
2018-05-07T10:37:55.122Z,47.60
2018-05-07T10:40:28.866Z,47.60
2018-05-07T10:43:03.148Z,46.60
2018-05-07T10:45:36.982Z,46.10
2018-05-07T10:48:11.685Z,46.00
2018-05-07T10:50:46.290Z,44.90
2018-05-07T10:53:20.944Z,44.50
2018-05-07T10:55:54.982Z,44.40
2018-05-07T10:58:29.499Z,42.80
2018-05-07T11:01:03.811Z,42.20
2018-05-07T11:03:38.120Z,45.10
2018-05-07T11:06:12.070Z,46.10
2018-05-07T11:08:45.840Z,47.10
2018-05-07T11:11:20.557Z,42.40
2018-05-07T11:13:55.278Z,44.20
2018-05-07T11:16:29.507Z,44.10
2018-05-07T11:19:03.300Z,42.00
2018-05-07T11:21:37.393Z,42.10
2018-05-07T11:24:12.013Z,45.30
2018-05-07T11:26:45.853Z,45.20
2018-05-07T11:29:20.722Z,42.30
2018-05-07T11:31:54.579Z,42.20
2018-05-07T11:34:28.586Z,40.20
2018-05-07T11:37:02.501Z,41.70
2018-05-07T11:39:36.502Z,40.00
2018-05-07T11:42:11.659Z,39.30
2018-05-07T11:44:45.723Z,39.30
2018-05-07T11:47:19.770Z,40.10
2018-05-07T11:49:54.448Z,43.30
2018-05-07T11:52:29.280Z,42.00
2018-05-07T11:55:03.772Z,39.10
2018-05-07T11:57:37.535Z,39.10
2018-05-07T12:00:11.846Z,41.10
2018-05-07T12:02:45.837Z,40.50
2018-05-07T12:05:20.616Z,39.30
2018-05-07T12:07:55.491Z,41.20
2018-05-07T12:10:30.343Z,39.50
2018-05-07T12:13:05.286Z,37.90
2018-05-07T12:15:39.056Z,37.80
2018-05-07T12:18:12.870Z,38.40
2018-05-07T12:20:46.574Z,36.70
2018-05-07T12:23:21.175Z,35.90
2018-05-07T12:25:55.360Z,36.10
2018-05-07T12:28:30.259Z,35.70
2018-05-07T12:31:03.967Z,35.70
2018-05-07T12:33:38.188Z,34.40
2018-05-07T12:36:11.952Z,36.50
2018-05-07T12:38:45.568Z,35.60
2018-05-07T12:41:19.328Z,36.00
2018-05-07T12:43:53.170Z,37.40
2018-05-07T12:46:26.774Z,35.00
2018-05-07T12:49:00.739Z,35.90
2018-05-07T12:51:34.388Z,33.70
2018-05-07T12:54:08.492Z,32.40
2018-05-07T12:56:42.273Z,34.80
2018-05-07T12:59:16.201Z,34.10
2018-05-07T13:01:50.006Z,32.50
2018-05-07T13:04:23.887Z,31.00
2018-05-07T13:06:57.760Z,29.70
2018-05-07T13:09:31.437Z,29.10
2018-05-07T13:12:05.349Z,30.10
2018-05-07T13:14:39.918Z,30.90
2018-05-07T13:17:14.582Z,30.00
2018-05-07T13:19:48.238Z,30.00
2018-05-07T13:22:21.954Z,28.60
2018-05-07T13:24:56.897Z,28.80
2018-05-07T13:27:31.477Z,29.60
2018-05-07T13:30:05.235Z,29.50
2018-05-07T13:32:39.738Z,28.30
2018-05-07T13:35:14.022Z,27.80
2018-05-07T13:37:47.886Z,27.80
2018-05-07T13:40:21.797Z,28.80
2018-05-07T13:42:55.387Z,27.60
2018-05-07T13:45:29.862Z,28.90
2018-05-07T13:48:03.532Z,28.90
2018-05-07T13:50:37.074Z,30.90
2018-05-07T13:53:11.908Z,27.20
2018-05-07T13:55:45.554Z,27.30
2018-05-07T13:58:19.686Z,27.30
2018-05-07T14:00:53.550Z,27.90
2018-05-07T14:03:28.038Z,28.10
2018-05-07T14:06:02.595Z,29.30
2018-05-07T14:08:37.425Z,29.10
2018-05-07T14:11:11.313Z,29.00
2018-05-07T14:13:45.055Z,27.60
2018-05-07T14:16:20.428Z,27.30
2018-05-07T14:18:54.475Z,27.30
2018-05-07T14:21:29.563Z,25.50
2018-05-07T14:24:03.898Z,25.80
2018-05-07T14:26:37.486Z,25.80
2018-05-07T14:29:10.994Z,28.60
2018-05-07T14:31:44.582Z,27.20
2018-05-07T14:34:18.931Z,25.80
2018-05-07T14:36:53.612Z,25.60
2018-05-07T14:39:28.516Z,25.40
2018-05-07T14:42:02.992Z,25.80
2018-05-07T14:44:37.497Z,25.30
2018-05-07T14:47:12.019Z,25.40
2018-05-07T14:49:45.901Z,25.40
2018-05-07T14:52:20.599Z,26.20
2018-05-07T14:54:54.316Z,26.20
2018-05-07T14:57:29.120Z,25.50
2018-05-07T15:00:03.457Z,26.00
2018-05-07T15:02:38.084Z,25.50
2018-05-07T15:05:11.806Z,25.50
2018-05-07T15:07:46.204Z,25.30
2018-05-07T15:10:20.016Z,25.30
2018-05-07T15:12:53.578Z,25.20
2018-05-07T15:15:27.213Z,26.20
2018-05-07T15:18:01.621Z,26.70
2018-05-07T15:20:35.398Z,26.70
2018-05-07T15:23:09.091Z,26.80
2018-05-07T15:25:43.383Z,24.80
2018-05-07T15:28:17.734Z,25.30
2018-05-07T15:30:52.405Z,25.30
2018-05-07T15:33:27.483Z,24.40
2018-05-07T15:36:01.932Z,25.30
2018-05-07T15:38:35.806Z,25.30
2018-05-07T15:41:09.644Z,25.70
2018-05-07T15:43:43.535Z,24.70
2018-05-07T15:46:17.123Z,25.50
2018-05-07T15:48:50.769Z,26.50
2018-05-07T15:51:25.366Z,25.60
2018-05-07T15:53:59.992Z,24.50
2018-05-07T15:56:34.487Z,26.00
2018-05-07T15:59:08.386Z,25.90
2018-05-07T16:01:41.978Z,25.80
2018-05-07T16:04:15.466Z,25.80
2018-05-07T16:06:49.736Z,26.00
2018-05-07T16:09:24.209Z,24.90
2018-05-07T16:11:58.337Z,24.90
2018-05-07T16:14:32.213Z,25.80
2018-05-07T16:17:06.574Z,25.90
2018-05-07T16:19:40.451Z,25.40
2018-05-07T16:22:14.978Z,26.60
2018-05-07T16:24:48.579Z,26.60
2018-05-07T16:27:23.057Z,28.70
2018-05-07T16:29:56.718Z,28.60
2018-05-07T16:32:30.772Z,30.40
2018-05-07T16:35:04.382Z,32.80
2018-05-07T16:37:38.228Z,33.30
2018-05-07T16:40:12.715Z,34.50
2018-05-07T16:42:47.171Z,33.20
2018-05-07T16:45:22.494Z,35.00
2018-05-07T16:47:56.222Z,35.00
2018-05-07T16:50:30.598Z,34.50
2018-05-07T16:53:05.138Z,36.10
2018-05-07T16:55:38.859Z,35.30
2018-05-07T16:58:12.459Z,35.90
2018-05-07T17:00:46.891Z,34.70
2018-05-07T17:03:21.383Z,36.40
2018-05-07T17:05:55.323Z,36.30
2018-05-07T17:08:29.040Z,38.10
2018-05-07T17:11:03.563Z,38.00
2018-05-07T17:13:37.350Z,38.00
2018-05-07T17:16:11.190Z,38.10
2018-05-07T17:18:44.790Z,38.30
2018-05-07T17:21:18.351Z,38.20
2018-05-07T17:23:51.975Z,38.50
2018-05-07T17:26:25.779Z,38.60
2018-05-07T17:28:59.694Z,40.80
2018-05-07T17:31:33.962Z,39.90
2018-05-07T17:34:08.531Z,39.90
2018-05-07T17:36:42.199Z,39.90
2018-05-07T17:39:15.774Z,40.00
2018-05-07T17:41:49.377Z,40.30
2018-05-07T17:44:35.019Z,40.90
2018-05-07T17:47:22.094Z,41.20
2018-05-07T17:49:55.678Z,41.20
2018-05-07T17:52:30.274Z,42.30
2018-05-07T17:55:03.890Z,42.30
2018-05-07T17:57:38.481Z,41.90
2018-05-07T18:00:12.084Z,41.80
2018-05-07T18:02:45.686Z,40.90
2018-05-07T18:05:19.191Z,39.90
2018-05-07T18:07:52.679Z,41.10
2018-05-07T18:10:26.746Z,42.10
2018-05-07T18:13:00.366Z,43.00
2018-05-07T18:15:34.031Z,44.40
2018-05-07T18:18:07.791Z,45.30
2018-05-07T18:20:42.105Z,46.00
2018-05-07T18:23:15.611Z,46.80
2018-05-07T18:25:49.491Z,47.50
2018-05-07T18:28:23.324Z,48.20
2018-05-07T18:30:57.132Z,48.60
2018-05-07T18:33:30.768Z,48.50
2018-05-07T18:36:04.334Z,49.30
2018-05-07T18:38:39.016Z,50.30
2018-05-07T18:41:13.453Z,50.80
2018-05-07T18:43:46.953Z,50.90
2018-05-07T18:46:20.624Z,52.50
2018-05-07T18:48:54.172Z,53.40
2018-05-07T18:51:27.838Z,54.30
2018-05-07T18:54:02.504Z,56.50
2018-05-07T18:56:36.050Z,56.60
2018-05-07T18:59:09.934Z,57.90
2018-05-07T19:01:43.654Z,58.70
2018-05-07T19:04:17.255Z,58.60
2018-05-07T19:06:51.696Z,63.00
2018-05-07T19:09:25.522Z,63.00
2018-05-07T19:12:00.564Z,64.80
2018-05-07T19:14:34.168Z,64.70
2018-05-07T19:17:08.426Z,67.80
2018-05-07T19:19:42.642Z,67.80
2018-05-07T19:22:16.477Z,69.60
2018-05-07T19:24:50.171Z,72.90
2018-05-07T19:27:24.388Z,78.60
2018-05-07T19:29:57.999Z,78.50
2018-05-07T19:32:31.415Z,82.40
2018-05-07T19:35:05.726Z,86.50
2018-05-07T19:37:39.165Z,86.50
2018-05-07T19:40:13.406Z,89.50
2018-05-07T19:42:47.951Z,90.30
2018-05-07T19:45:22.510Z,90.90
2018-05-07T19:47:56.439Z,91.00
2018-05-07T19:50:30.085Z,90.90
2018-05-07T19:53:04.856Z,91.60
2018-05-07T19:55:39.291Z,91.50
2018-05-07T19:58:13.004Z,91.50
2018-05-07T20:00:48.237Z,92.40
2018-05-07T20:03:21.965Z,92.40
2018-05-07T20:05:56.486Z,92.10
2018-05-07T20:08:30.986Z,92.40
2018-05-07T20:11:05.515Z,92.70
2018-05-07T20:13:39.211Z,92.70
2018-05-07T20:16:12.870Z,93.40
2018-05-07T20:18:46.312Z,94.10
2018-05-07T20:21:19.913Z,94.20
2018-05-07T20:23:53.594Z,94.50
2018-05-07T20:26:27.568Z,95.10
2018-05-07T20:29:02.166Z,95.40
2018-05-07T20:31:37.163Z,95.60
2018-05-07T20:34:10.960Z,95.50
2018-05-07T20:36:44.482Z,95.00
2018-05-07T20:39:18.128Z,95.10
2018-05-07T20:41:51.728Z,95.70
2018-05-07T20:44:25.419Z,96.20
2018-05-07T20:46:59.997Z,96.90
2018-05-07T20:49:35.522Z,97.40
2018-05-07T20:52:09.111Z,97.40
2018-05-07T20:54:42.650Z,97.30
2018-05-07T20:57:16.247Z,97.70
2018-05-07T20:59:49.951Z,97.50
2018-05-07T21:02:23.691Z,97.30
2018-05-07T21:04:57.398Z,97.50
2018-05-07T21:07:30.972Z,98.00
2018-05-07T21:10:04.709Z,98.10
2018-05-07T21:12:38.362Z,98.50
2018-05-07T21:15:12.681Z,99.00
2018-05-07T21:17:46.265Z,99.00
2018-05-07T21:20:19.791Z,99.00
2018-05-07T21:22:53.391Z,99.50
2018-05-07T21:25:27.362Z,99.90
2018-05-07T21:28:00.958Z,99.70
2018-05-07T21:30:35.975Z,99.90
2018-05-07T21:33:09.599Z,99.90
2018-05-07T21:35:44.083Z,99.60
2018-05-07T21:38:18.371Z,99.20
2018-05-07T21:40:51.951Z,99.20
2018-05-07T21:43:25.757Z,99.40
2018-05-07T21:46:00.271Z,99.90
2018-05-07T21:48:33.961Z,99.90
2018-05-07T21:51:07.475Z,99.60
2018-05-07T21:53:41.991Z,99.90
2018-05-07T21:56:15.933Z,99.90
2018-05-07T21:58:49.514Z,99.90
2018-05-07T22:01:23.196Z,99.90
2018-05-07T22:03:57.522Z,99.90
2018-05-07T22:06:32.031Z,99.90
2018-05-07T22:09:06.366Z,99.90
2018-05-07T22:11:40.063Z,99.90
2018-05-07T22:14:13.700Z,99.90
2018-05-07T22:16:47.226Z,99.90
2018-05-07T22:19:21.681Z,99.90
2018-05-07T22:21:56.400Z,99.90
2018-05-07T22:24:30.255Z,99.90
2018-05-07T22:27:04.246Z,99.90
2018-05-07T22:29:38.657Z,99.90
2018-05-07T22:32:12.391Z,99.90
2018-05-07T22:34:46.118Z,99.90
2018-05-07T22:37:20.532Z,99.90
2018-05-07T22:39:54.082Z,99.90
2018-05-07T22:42:27.622Z,99.90
2018-05-07T22:45:01.243Z,99.90
2018-05-07T22:47:34.999Z,99.90
2018-05-07T22:50:09.540Z,99.90
2018-05-07T22:52:43.226Z,99.90
2018-05-07T22:55:20.568Z,99.90
2018-05-07T22:57:54.216Z,99.90
2018-05-07T23:00:27.926Z,99.90
2018-05-07T23:03:01.492Z,99.90
2018-05-07T23:05:35.815Z,99.90
2018-05-07T23:08:09.291Z,99.90
2018-05-07T23:10:42.811Z,99.90
2018-05-07T23:13:16.309Z,99.90
2018-05-07T23:15:49.895Z,99.90
2018-05-07T23:18:23.629Z,99.90
2018-05-07T23:20:57.378Z,99.90
2018-05-07T23:23:31.942Z,99.90
2018-05-07T23:26:06.350Z,99.90
2018-05-07T23:28:40.808Z,99.90
2018-05-07T23:31:15.298Z,99.90
2018-05-07T23:33:49.606Z,99.90
2018-05-07T23:36:24.223Z,99.90
2018-05-07T23:38:57.721Z,99.90
2018-05-07T23:41:32.265Z,99.90
2018-05-07T23:44:06.688Z,99.90
2018-05-07T23:46:41.194Z,99.90
2018-05-07T23:49:15.071Z,99.90
2018-05-07T23:51:48.760Z,99.90
2018-05-07T23:54:22.452Z,99.90
2018-05-07T23:56:56.107Z,99.90
2018-05-07T23:59:30.716Z,99.90
